Time;durP1;ratioP1;P1;durP2;ratioP2;P2;SDS_P1;SDS_P2;PMS_P1;PMS_P2;Temp;Humidity;BMP_temperature;BMP_pressure;BME280_temperature;BME280_humidity;BME280_pressure;Samples;Min_cycle;Max_cycle;Signal;HPM_P1;HPM_P2
2023/07/07 00:02:12;;;;;;;9.38;3.53;;;;;;;15.89;100.00;101992.25;4928601;28;20682;-59
2023/07/07 00:04:38;;;;;;;5.22;3.10;;;;;;;15.85;100.00;101988.00;4928909;29;20031;-61
2023/07/07 00:07:04;;;;;;;9.05;3.65;;;;;;;15.84;100.00;101986.28;4928677;29;20027;-60
2023/07/07 00:09:30;;;;;;;4.30;3.22;;;;;;;15.82;100.00;101983.66;4927616;29;20430;-61
2023/07/07 00:11:57;;;;;;;7.70;3.50;;;;;;;15.79;100.00;101994.41;4938105;29;20028;-58
2023/07/07 00:14:23;;;;;;;5.70;3.65;;;;;;;15.77;100.00;101994.47;4947340;28;20184;-61
2023/07/07 00:16:48;;;;;;;7.05;3.45;;;;;;;15.76;100.00;101987.44;4947611;28;20554;-59
2023/07/07 00:19:13;;;;;;;6.75;3.47;;;;;;;15.75;100.00;101991.00;4948370;28;20027;-61
2023/07/07 00:21:40;;;;;;;7.50;3.85;;;;;;;15.74;100.00;101980.44;4948011;28;20519;-59
2023/07/07 00:24:07;;;;;;;7.88;3.72;;;;;;;15.73;100.00;101981.34;4946023;28;20172;-60
2023/07/07 00:26:33;;;;;;;9.07;3.47;;;;;;;15.73;100.00;101984.00;4947333;28;20020;-58
2023/07/07 00:28:58;;;;;;;7.97;3.60;;;;;;;15.75;100.00;101977.72;4946927;28;20046;-59
2023/07/07 00:31:24;;;;;;;5.55;3.45;;;;;;;15.73;100.00;101974.25;4947563;28;20031;-62
2023/07/07 00:33:49;;;;;;;6.07;3.80;;;;;;;15.72;100.00;101979.63;4947810;28;20043;-60
2023/07/07 00:36:15;;;;;;;5.57;3.83;;;;;;;15.71;100.00;101978.75;4942851;28;20168;-58
2023/07/07 00:38:40;;;;;;;9.30;4.93;;;;;;;15.76;100.00;101981.25;4946663;28;20487;-60
2023/07/07 00:41:07;;;;;;;6.28;4.68;;;;;;;15.72;100.00;101976.97;4946407;28;20035;-60
2023/07/07 00:43:33;;;;;;;6.95;4.65;;;;;;;15.72;100.00;101977.84;4947235;28;20031;-60
2023/07/07 00:45:59;;;;;;;10.52;4.07;;;;;;;15.69;100.00;101977.09;4947721;28;20059;-57
2023/07/07 00:48:36;;;;;;;6.20;4.47;;;;;;;15.67;100.00;101974.47;4933805;28;20035;-60
2023/07/07 00:51:19;;;;;;;5.68;4.47;;;;;;;15.66;100.00;101972.75;4926623;29;20394;-59
2023/07/07 00:53:47;;;;;;;5.85;4.38;;;;;;;15.63;100.00;101971.06;4927325;29;20480;-59
2023/07/07 00:56:19;;;;;;;7.28;4.10;;;;;;;15.64;100.00;101970.16;4926739;28;20028;-61
2023/07/07 00:58:44;;;;;;;7.97;4.28;;;;;;;15.62;100.00;101971.16;4927781;29;20032;-59
2023/07/07 01:01:14;;;;;;;10.00;4.63;;;;;;;15.60;100.00;101967.66;4927017;29;20024;-58
2023/07/07 01:03:45;;;;;;;6.45;3.78;;;;;;;15.54;100.00;101969.63;4926063;29;20032;-55
2023/07/07 01:06:12;;;;;;;8.30;4.18;;;;;;;15.53;100.00;101959.91;4926469;28;20499;-61
2023/07/07 01:08:39;;;;;;;5.22;4.03;;;;;;;15.52;100.00;101962.63;4925673;28;20070;-58
2023/07/07 01:11:05;;;;;;;11.88;4.47;;;;;;;15.51;100.00;101963.56;4926773;28;20513;-61
2023/07/07 01:13:31;;;;;;;5.45;4.15;;;;;;;15.52;100.00;101958.19;4927710;28;20110;-60
2023/07/07 01:16:17;;;;;;;5.85;4.10;;;;;;;15.52;100.00;101962.63;4926710;29;20419;-61
2023/07/07 01:19:15;;;;;;;5.80;4.15;;;;;;;15.47;100.00;101961.97;4926071;29;20052;-60
2023/07/07 01:21:55;;;;;;;8.02;4.72;;;;;;;15.44;100.00;101962.06;4928020;29;20035;-59
2023/07/07 01:25:07;;;;;;;8.80;4.93;;;;;;;15.40;100.00;101958.63;5025099;23;20054;-58
2023/07/07 01:27:59;;;;;;;6.82;4.63;;;;;;;15.37;100.00;101967.59;5007820;28;20030;-59
2023/07/07 01:30:33;;;;;;;7.22;4.90;;;;;;;15.34;100.00;101961.50;5023566;28;20140;-59
2023/07/07 01:33:06;;;;;;;11.15;4.85;;;;;;;15.34;100.00;101958.84;5008066;28;20022;-59
2023/07/07 01:35:31;;;;;;;8.02;4.43;;;;;;;15.37;100.00;101961.41;5013741;28;20034;-59
2023/07/07 01:37:59;;;;;;;5.90;4.95;;;;;;;15.37;100.00;101964.94;5026444;28;20018;-60
2023/07/07 01:40:50;;;;;;;6.82;4.72;;;;;;;15.37;100.00;101962.28;5026169;28;20053;-59
2023/07/07 01:43:27;;;;;;;9.80;4.93;;;;;;;15.38;100.00;101964.00;5025974;28;20055;-60
2023/07/07 01:46:03;;;;;;;10.50;5.30;;;;;;;15.36;100.00;101960.56;5026393;28;20079;-61
2023/07/07 01:48:45;;;;;;;10.32;5.15;;;;;;;15.36;100.00;101955.25;5020961;28;20037;-60
2023/07/07 01:51:12;;;;;;;9.35;5.25;;;;;;;15.38;100.00;101957.84;5006423;28;20905;-57
2023/07/07 01:53:38;;;;;;;10.90;5.65;;;;;;;15.38;100.00;101950.72;5005594;28;20026;-61
2023/07/07 01:56:04;;;;;;;7.60;5.57;;;;;;;15.39;100.00;101960.41;5006686;28;20394;-60
2023/07/07 01:58:31;;;;;;;12.75;5.78;;;;;;;15.40;100.00;101956.88;5008215;28;20022;-59
2023/07/07 02:00:57;;;;;;;8.32;5.70;;;;;;;15.39;100.00;101955.09;4989329;28;20030;-61
2023/07/07 02:03:22;;;;;;;10.80;6.25;;;;;;;15.37;100.00;101961.41;5006759;28;20033;-60
2023/07/07 02:05:48;;;;;;;12.68;6.50;;;;;;;15.36;100.00;101959.69;5007161;28;20509;-58
2023/07/07 02:08:14;;;;;;;8.60;5.53;;;;;;;15.37;100.00;101956.09;5007113;28;20022;-60
2023/07/07 02:10:40;;;;;;;7.38;5.63;;;;;;;15.38;100.00;101949.88;5007975;28;20048;-59
2023/07/07 02:13:05;;;;;;;8.88;6.35;;;;;;;15.36;100.00;101949.94;5006898;28;20026;-59
2023/07/07 02:15:31;;;;;;;8.23;5.75;;;;;;;15.39;100.00;101955.09;5007994;28;20034;-57
2023/07/07 02:17:57;;;;;;;10.65;6.88;;;;;;;15.37;100.00;101949.00;5007198;28;20037;-59
2023/07/07 02:20:22;;;;;;;10.15;6.38;;;;;;;15.38;100.00;101950.72;5007803;28;20037;-60
2023/07/07 02:22:48;;;;;;;13.00;6.35;;;;;;;15.38;100.00;101945.41;5007394;28;20067;-58
2023/07/07 02:25:13;;;;;;;8.05;5.85;;;;;;;15.39;100.00;101946.28;5006456;28;20713;-60
2023/07/07 02:27:39;;;;;;;8.80;6.53;;;;;;;15.40;100.00;101946.25;5007511;28;20041;-60
2023/07/07 02:30:05;;;;;;;11.30;6.53;;;;;;;15.41;100.00;101952.41;5006932;28;20343;-58
2023/07/07 02:32:30;;;;;;;10.10;6.30;;;;;;;15.44;100.00;101951.44;5007727;28;20362;-60
2023/07/07 02:34:58;;;;;;;9.65;7.05;;;;;;;15.47;100.00;101948.69;5007566;28;20028;-60
2023/07/07 02:37:24;;;;;;;10.48;6.60;;;;;;;15.50;100.00;101951.22;5006293;28;20021;-59
2023/07/07 02:39:49;;;;;;;10.45;6.30;;;;;;;15.48;100.00;101950.41;5007710;28;20117;-59
2023/07/07 02:42:15;;;;;;;11.90;6.70;;;;;;;15.51;100.00;101959.09;5007091;28;20466;-58
2023/07/07 02:44:40;;;;;;;12.60;7.07;;;;;;;15.49;100.00;101947.69;5008084;28;20049;-60
2023/07/07 02:47:09;;;;;;;12.18;6.20;;;;;;;15.56;100.00;101948.31;5006018;28;20034;-61
2023/07/07 02:49:34;;;;;;;13.57;6.75;;;;;;;15.61;100.00;101956.13;5024447;28;20037;-61
2023/07/07 02:52:00;;;;;;;11.27;5.93;;;;;;;15.64;100.00;101958.66;5029997;28;20040;-59
2023/07/07 02:54:25;;;;;;;13.40;7.53;;;;;;;15.63;100.00;101957.78;5030546;28;20031;-60
2023/07/07 02:56:50;;;;;;;11.15;6.43;;;;;;;15.75;100.00;101955.59;5030501;28;20409;-58
2023/07/07 02:59:16;;;;;;;8.35;5.90;;;;;;;15.78;100.00;101960.81;5031506;28;20025;-59
2023/07/07 03:01:44;;;;;;;11.02;5.78;;;;;;;15.87;100.00;101965.75;5013677;28;20676;-60
2023/07/07 03:04:10;;;;;;;9.18;6.18;;;;;;;15.88;100.00;101967.50;5010949;28;20030;-59
2023/07/07 03:06:36;;;;;;;8.55;5.70;;;;;;;15.88;100.00;101966.63;5010668;28;20034;-60
2023/07/07 03:09:01;;;;;;;12.18;6.70;;;;;;;15.84;100.00;101963.22;5009993;28;20493;-58
2023/07/07 03:11:26;;;;;;;10.13;6.72;;;;;;;15.85;100.00;101966.72;5010762;28;20029;-59
2023/07/07 03:13:52;;;;;;;10.52;6.15;;;;;;;15.89;100.00;101974.53;5009898;28;20498;-59
2023/07/07 03:16:23;;;;;;;9.70;6.45;;;;;;;15.95;100.00;101961.94;5011411;28;20038;-60
2023/07/07 03:18:53;;;;;;;7.13;5.85;;;;;;;15.99;100.00;101961.81;5010340;28;20465;-59
2023/07/07 03:21:20;;;;;;;14.27;5.97;;;;;;;16.03;100.00;101962.53;5022515;28;20016;-59
2023/07/07 03:23:45;;;;;;;11.00;6.35;;;;;;;16.06;100.00;101970.41;4990004;28;20093;-60
2023/07/07 03:26:13;;;;;;;9.27;6.07;;;;;;;16.09;100.00;101964.09;4989467;28;20050;-60
2023/07/07 03:28:38;;;;;;;8.57;5.82;;;;;;;16.17;100.00;101967.31;4990744;28;20026;-59
2023/07/07 03:31:09;;;;;;;10.15;6.28;;;;;;;16.23;100.00;101960.88;4990573;28;20018;-59
2023/07/07 03:33:34;;;;;;;10.25;5.90;;;;;;;16.25;100.00;101967.00;5000833;28;20458;-60
2023/07/07 03:36:00;;;;;;;9.98;5.97;;;;;;;16.28;100.00;101972.19;5010016;28;20125;-58
2023/07/07 03:38:25;;;;;;;12.32;5.50;;;;;;;16.37;100.00;101973.59;5008471;28;20093;-58
2023/07/07 03:40:50;;;;;;;7.97;5.35;;;;;;;16.39;100.00;101969.97;5010504;28;20021;-58
2023/07/07 03:43:18;;;;;;;10.10;5.28;;;;;;;16.41;100.00;101969.91;5010751;28;20041;-61
2023/07/07 03:45:44;;;;;;;7.68;5.78;;;;;;;16.32;100.00;101965.84;5020418;28;20040;-60
2023/07/07 03:48:09;;;;;;;9.80;5.30;;;;;;;16.37;100.00;101966.50;5030181;28;20377;-59
2023/07/07 03:50:35;;;;;;;7.13;5.22;;;;;;;16.38;100.00;101962.91;5029123;28;20099;-58
2023/07/07 03:53:00;;;;;;;13.80;5.28;;;;;;;16.42;100.00;101966.31;5029083;28;20036;-59
2023/07/07 03:55:25;;;;;;;10.15;5.00;;;;;;;16.45;100.00;101962.66;5029710;28;20108;-61
2023/07/07 03:57:51;;;;;;;13.40;5.10;;;;;;;16.41;100.00;101968.09;5029336;28;20032;-61
2023/07/07 04:00:16;;;;;;;6.72;4.90;;;;;;;16.43;100.00;101973.38;5029547;28;20573;-60
2023/07/07 04:02:43;;;;;;;7.90;5.00;;;;;;;16.48;100.00;101967.88;5029548;28;20059;-61
2023/07/07 04:05:09;;;;;;;8.32;4.95;;;;;;;16.52;100.00;101967.69;5029237;28;20016;-59
2023/07/07 04:07:35;;;;;;;6.57;4.75;;;;;;;16.59;100.00;101972.75;5028657;28;20021;-60
2023/07/07 04:10:00;;;;;;;9.45;5.00;;;;;;;16.67;100.00;101971.50;5013830;28;20041;-58
2023/07/07 04:12:25;;;;;;;10.70;5.00;;;;;;;16.67;100.00;101975.94;5009883;28;20413;-60
2023/07/07 04:14:51;;;;;;;7.97;5.15;;;;;;;16.67;100.00;101976.81;5008504;28;20048;-59
2023/07/07 04:17:16;;;;;;;12.25;4.93;;;;;;;16.71;100.00;101979.34;5006932;28;20038;-61
2023/07/07 04:19:41;;;;;;;6.95;4.32;;;;;;;16.82;100.00;101978.91;5024947;28;20095;-59
2023/07/07 04:22:07;;;;;;;9.70;4.78;;;;;;;16.83;100.00;101981.50;5007170;28;20060;-59
2023/07/07 04:24:33;;;;;;;9.88;4.70;;;;;;;16.87;100.00;101985.78;5008519;28;20055;-60
2023/07/07 04:26:58;;;;;;;7.88;4.15;;;;;;;16.90;100.00;101980.31;5021868;28;20033;-61
2023/07/07 04:29:25;;;;;;;8.35;4.80;;;;;;;16.91;100.00;101982.03;5019238;28;20456;-60
2023/07/07 04:31:50;;;;;;;10.40;4.20;;;;;;;16.92;100.00;101980.25;5010923;28;20025;-56
2023/07/07 04:34:16;;;;;;;6.88;4.07;;;;;;;16.93;100.00;101981.97;5009019;28;20105;-61
2023/07/07 04:36:42;;;;;;;9.35;4.47;;;;;;;16.90;100.00;101977.66;5008053;28;20029;-59
2023/07/07 04:39:07;;;;;;;7.35;4.57;;;;;;;17.02;100.00;101983.38;5008022;28;20458;-58
2023/07/07 04:41:33;;;;;;;5.75;3.88;;;;;;;17.09;100.00;101978.66;5002478;28;20109;-59
2023/07/07 04:44:00;;;;;;;10.55;4.50;;;;;;;17.10;100.00;101975.94;4989271;28;20394;-60
2023/07/07 04:46:32;;;;;;;13.00;4.35;;;;;;;17.18;100.00;101973.81;5008868;28;20028;-59
2023/07/07 04:48:58;;;;;;;8.20;4.07;;;;;;;17.29;100.00;101973.34;5008490;28;20075;-61
2023/07/07 04:51:24;;;;;;;6.05;4.18;;;;;;;17.34;100.00;101973.13;5009078;28;20056;-62
2023/07/07 04:53:50;;;;;;;6.35;3.95;;;;;;;17.36;100.00;101975.72;5015360;28;20030;-60
2023/07/07 04:56:18;;;;;;;9.57;3.80;;;;;;;17.48;100.00;101977.84;5020597;28;20108;-59
2023/07/07 04:58:46;;;;;;;4.90;3.50;;;;;;;17.57;100.00;101973.91;5008775;28;20030;-61
2023/07/07 05:01:15;;;;;;;9.52;4.22;;;;;;;17.61;100.00;101979.97;5011646;28;20026;-60
2023/07/07 05:03:41;;;;;;;6.72;3.78;;;;;;;17.67;100.00;101979.69;5017870;28;20029;-61
2023/07/07 05:06:08;;;;;;;5.18;4.25;;;;;;;17.75;100.00;101982.84;5026818;28;20382;-61
2023/07/07 05:08:38;;;;;;;7.60;3.88;;;;;;;17.80;100.00;101978.19;5025513;28;20041;-62
2023/07/07 05:11:04;;;;;;;6.25;3.72;;;;;;;17.79;100.00;101972.94;5026268;28;20037;-60
2023/07/07 05:13:30;;;;;;;4.75;3.33;;;;;;;17.93;100.00;101975.81;5026699;28;20030;-59
2023/07/07 05:16:10;;;;;;;7.18;3.65;;;;;;;18.00;100.00;101978.19;5022758;28;20361;-62
2023/07/07 05:18:36;;;;;;;7.22;3.50;;;;;;;18.05;100.00;101982.34;5008457;28;20038;-60
2023/07/07 05:21:02;;;;;;;5.20;4.00;;;;;;;18.11;100.00;101986.56;5008551;28;20037;-60
2023/07/07 05:23:27;;;;;;;6.95;3.75;;;;;;;18.19;100.00;101987.03;5007076;28;20026;-59
2023/07/07 05:25:53;;;;;;;7.00;3.22;;;;;;;18.28;100.00;101990.22;5006764;28;20054;-60
2023/07/07 05:28:19;;;;;;;8.40;3.33;;;;;;;18.35;100.00;101988.97;5008511;28;20032;-60
2023/07/07 05:30:44;;;;;;;5.38;3.28;;;;;;;18.36;100.00;101993.38;5008736;28;20113;-59
2023/07/07 05:33:10;;;;;;;8.05;3.88;;;;;;;18.42;100.00;101993.06;5010326;28;20550;-60
2023/07/07 05:35:35;;;;;;;6.60;3.63;;;;;;;18.40;100.00;101994.09;5023382;28;20092;-61
2023/07/07 05:38:01;;;;;;;7.88;3.20;;;;;;;18.50;100.00;101991.81;5006870;28;20082;-60
2023/07/07 05:40:27;;;;;;;4.70;3.50;;;;;;;18.49;100.00;101992.78;5008885;28;20541;-60
2023/07/07 05:42:53;;;;;;;6.18;3.28;;;;;;;18.62;100.00;101999.22;5007734;28;20100;-56
2023/07/07 05:45:18;;;;;;;8.48;3.58;;;;;;;18.66;100.00;101999.97;5008735;28;20381;-61
2023/07/07 05:47:44;;;;;;;6.05;3.08;;;;;;;18.73;100.00;101997.84;5007254;28;20386;-60
2023/07/07 05:50:09;;;;;;;7.30;3.40;;;;;;;18.89;100.00;102004.13;5007231;28;20614;-61
2023/07/07 05:52:35;;;;;;;8.93;3.33;;;;;;;18.91;100.00;102001.38;5015633;28;20029;-58
2023/07/07 05:55:02;;;;;;;5.07;3.33;;;;;;;19.00;99.76;102008.94;5026344;28;20021;-65
2023/07/07 05:57:28;;;;;;;8.10;3.53;;;;;;;19.08;98.95;102011.22;5019949;28;20152;-59
2023/07/07 05:59:54;;;;;;;6.07;3.38;;;;;;;19.21;98.44;102013.25;5007135;28;20117;-65
2023/07/07 06:02:19;;;;;;;5.88;2.97;;;;;;;19.32;98.66;102000.19;5006780;28;20356;-58
2023/07/07 06:04:44;;;;;;;7.05;3.53;;;;;;;19.29;98.71;102011.91;5013347;28;20029;-57
2023/07/07 06:07:10;;;;;;;5.03;3.00;;;;;;;19.47;98.42;102008.38;5025177;28;20493;-58
2023/07/07 06:09:35;;;;;;;8.07;2.80;;;;;;;19.53;98.15;102003.53;5026438;28;20033;-59
2023/07/07 06:12:01;;;;;;;6.15;2.90;;;;;;;19.52;97.58;102001.81;5026167;28;20038;-59
2023/07/07 06:14:27;;;;;;;4.68;3.05;;;;;;;19.68;97.25;102006.31;5026655;28;20057;-62
2023/07/07 06:16:52;;;;;;;5.38;3.33;;;;;;;19.73;96.82;102006.06;5025635;28;20110;-57
2023/07/07 06:19:17;;;;;;;11.43;3.25;;;;;;;19.81;96.21;102003.88;5027847;28;20033;-58
2023/07/07 06:21:43;;;;;;;5.65;2.83;;;;;;;19.89;96.45;102000.75;5026589;28;20021;-59
2023/07/07 06:24:08;;;;;;;6.65;3.10;;;;;;;19.99;96.86;102011.81;5025729;28;20050;-62
2023/07/07 06:26:33;;;;;;;7.60;3.22;;;;;;;19.95;96.04;102008.44;5010714;28;20022;-59
2023/07/07 06:28:59;;;;;;;7.28;3.10;;;;;;;20.07;96.00;102015.81;5010085;28;20022;-59
2023/07/07 06:31:24;;;;;;;6.57;3.10;;;;;;;20.16;95.12;102021.59;5010856;28;20030;-58
2023/07/07 06:33:49;;;;;;;6.65;3.05;;;;;;;20.22;94.46;102012.38;5011740;28;20351;-61
2023/07/07 06:36:15;;;;;;;4.05;2.92;;;;;;;20.33;95.11;102009.94;5015366;28;20040;-69
2023/07/07 06:38:40;;;;;;;5.07;3.05;;;;;;;20.41;94.08;102010.34;5018934;28;20032;-55
2023/07/07 06:41:10;;;;;;;7.93;2.80;;;;;;;20.55;93.81;102020.28;5010987;28;20486;-59
2023/07/07 06:43:35;;;;;;;5.07;3.00;;;;;;;20.60;93.64;102020.00;5009767;28;20041;-59
2023/07/07 06:46:01;;;;;;;8.05;2.80;;;;;;;20.73;92.79;102024.63;5009799;28;20033;-59
2023/07/07 06:48:26;;;;;;;7.03;3.30;;;;;;;20.73;93.54;102024.63;5010993;28;20030;-58
2023/07/07 06:50:51;;;;;;;8.25;3.20;;;;;;;20.79;93.04;102024.28;5010547;28;20508;-59
2023/07/07 06:53:17;;;;;;;8.20;2.47;;;;;;;20.81;92.63;102020.59;5011225;28;20358;-59
2023/07/07 06:55:43;;;;;;;5.88;2.67;;;;;;;20.99;92.83;102024.97;5026857;28;20056;-54
2023/07/07 06:58:10;;;;;;;9.20;2.63;;;;;;;20.98;92.16;102031.28;5029970;28;20047;-60
2023/07/07 07:00:36;;;;;;;3.70;2.60;;;;;;;21.10;91.98;102032.38;5030526;28;20057;-61
2023/07/07 07:03:01;;;;;;;6.70;2.45;;;;;;;21.21;92.15;102036.13;5030448;28;20021;-56
2023/07/07 07:05:27;;;;;;;7.40;2.35;;;;;;;21.30;91.72;102029.34;5015837;28;20580;-58
2023/07/07 07:07:52;;;;;;;4.90;2.50;;;;;;;21.44;92.05;102041.03;5008551;28;20053;-56
2023/07/07 07:10:17;;;;;;;8.07;2.50;;;;;;;21.69;90.86;102034.13;5007733;28;20022;-65
2023/07/07 07:12:43;;;;;;;6.35;2.58;;;;;;;21.79;90.03;102034.47;5029413;28;20026;-60
2023/07/07 07:15:09;;;;;;;9.40;3.17;;;;;;;21.74;89.02;102034.72;5028817;28;20393;-50
2023/07/07 07:17:35;;;;;;;6.10;2.78;;;;;;;21.70;91.18;102034.03;5030143;28;20037;-50
2023/07/07 07:20:00;;;;;;;4.10;2.58;;;;;;;21.93;89.76;102037.13;5030240;28;20026;-53
2023/07/07 07:22:26;;;;;;;3.88;2.45;;;;;;;22.04;89.17;102035.59;5027344;28;20493;-58
2023/07/07 07:24:51;;;;;;;6.10;2.78;;;;;;;22.11;87.99;102039.59;5009149;28;20042;-60
2023/07/07 07:27:16;;;;;;;6.15;2.70;;;;;;;22.17;88.57;102031.16;5010119;28;20076;-58
2023/07/07 07:29:43;;;;;;;3.90;2.70;;;;;;;22.22;87.50;102029.00;5015491;28;20110;-59
2023/07/07 07:32:09;;;;;;;5.60;2.70;;;;;;;22.28;87.18;102032.28;5009267;28;20076;-61
2023/07/07 07:34:34;;;;;;;7.15;2.80;;;;;;;22.41;86.66;102035.00;5006488;28;20413;-60
2023/07/07 07:37:00;;;;;;;5.53;2.38;;;;;;;22.43;86.75;102039.31;5009153;28;20489;-62
2023/07/07 07:39:26;;;;;;;7.20;2.58;;;;;;;22.65;86.29;102042.44;5015496;28;20540;-60
2023/07/07 07:41:53;;;;;;;5.85;2.80;;;;;;;22.60;85.67;102040.06;5029345;28;20025;-60
2023/07/07 07:44:20;;;;;;;6.50;2.40;;;;;;;22.63;85.45;102044.38;5011232;28;20034;-62
2023/07/07 07:46:47;;;;;;;4.72;2.55;;;;;;;22.64;85.96;102049.66;5009942;28;20018;-61
2023/07/07 07:49:13;;;;;;;5.10;2.53;;;;;;;22.84;85.53;102050.13;5009219;28;20387;-63
2023/07/07 07:51:39;;;;;;;5.95;2.47;;;;;;;22.95;85.09;102044.91;5004177;28;20018;-59
2023/07/07 07:54:10;;;;;;;5.07;2.45;;;;;;;23.10;84.78;102040.31;5008089;28;20030;-59
2023/07/07 07:56:36;;;;;;;5.47;2.47;;;;;;;23.12;84.84;102040.19;5008476;28;20473;-60
2023/07/07 07:59:01;;;;;;;6.78;2.63;;;;;;;23.32;84.29;102043.31;5022574;28;20029;-60
2023/07/07 08:01:27;;;;;;;8.07;2.55;;;;;;;23.41;83.57;102044.53;5028008;28;20040;-63
2023/07/07 08:03:52;;;;;;;5.72;2.40;;;;;;;23.39;82.96;102039.25;5028177;28;20040;-62
2023/07/07 08:06:18;;;;;;;6.35;2.60;;;;;;;23.48;83.09;102041.31;5028303;28;20034;-61
2023/07/07 08:08:43;;;;;;;3.45;2.25;;;;;;;23.64;83.01;102044.75;5029200;28;20117;-61
2023/07/07 08:11:13;;;;;;;6.00;2.90;;;;;;;23.68;83.52;102052.50;5024949;28;20038;-61
2023/07/07 08:13:38;;;;;;;5.30;2.13;;;;;;;23.64;80.78;102048.31;5009121;28;20026;-62
2023/07/07 08:16:04;;;;;;;4.20;2.25;;;;;;;23.75;81.13;102052.91;5007256;28;20042;-61
2023/07/07 08:18:29;;;;;;;4.50;1.83;;;;;;;23.90;81.06;102053.63;5006472;28;20034;-62
2023/07/07 08:20:54;;;;;;;4.05;1.98;;;;;;;23.92;79.53;102049.00;5007060;28;20118;-61
2023/07/07 08:23:20;;;;;;;4.10;2.00;;;;;;;24.10;78.83;102054.03;5007889;28;20506;-61
2023/07/07 08:25:46;;;;;;;3.40;2.13;;;;;;;24.22;78.36;102055.00;5008345;28;20037;-61
2023/07/07 08:28:11;;;;;;;3.80;2.10;;;;;;;24.19;78.77;102058.78;5008524;28;20057;-62
2023/07/07 08:30:37;;;;;;;3.58;2.20;;;;;;;24.33;79.24;102056.91;5007606;28;20010;-62
2023/07/07 08:33:02;;;;;;;8.05;2.22;;;;;;;24.34;77.32;102058.63;5007511;28;20474;-63
2023/07/07 08:35:28;;;;;;;6.05;2.22;;;;;;;24.33;76.99;102056.91;5008541;28;20034;-60
2023/07/07 08:37:53;;;;;;;5.47;2.30;;;;;;;24.45;76.39;102058.69;5007021;28;20022;-62
2023/07/07 08:40:22;;;;;;;9.35;2.33;;;;;;;24.37;76.93;102055.69;5008404;28;20041;-61
2023/07/07 08:42:47;;;;;;;3.13;1.90;;;;;;;24.50;77.27;102052.94;5004864;28;20109;-62
2023/07/07 08:45:18;;;;;;;4.18;2.05;;;;;;;24.70;76.67;102064.06;5007345;28;20109;-61
2023/07/07 08:48:14;;;;;;;5.15;2.22;;;;;;;24.83;75.95;102055.94;5008734;28;20534;-60
2023/07/07 08:51:02;;;;;;;3.90;2.05;;;;;;;24.86;75.76;102061.06;5021967;28;20030;-63
2023/07/07 08:53:30;;;;;;;6.13;2.45;;;;;;;24.84;73.76;102063.03;5007459;28;20485;-61
2023/07/07 08:56:00;;;;;;;6.05;2.25;;;;;;;24.89;70.89;102060.03;5008016;28;20125;-61
2023/07/07 08:58:59;;;;;;;3.85;2.30;;;;;;;24.91;71.09;102061.63;5007772;28;20030;-60
2023/07/07 09:01:30;;;;;;;4.60;2.10;;;;;;;24.90;69.91;102054.50;5006185;28;20022;-60
2023/07/07 09:04:18;;;;;;;6.30;2.30;;;;;;;24.99;70.00;102053.78;5005279;28;20144;-63
2023/07/07 09:07:15;;;;;;;5.85;2.50;;;;;;;25.10;68.35;102052.09;5006128;28;20026;-63
2023/07/07 09:10:02;;;;;;;4.97;2.00;;;;;;;25.12;68.16;102050.16;5005183;28;20029;-63
2023/07/07 09:12:32;;;;;;;6.05;2.10;;;;;;;25.02;65.89;102047.31;5007377;28;20030;-62
2023/07/07 09:15:01;;;;;;;4.10;2.08;;;;;;;25.18;65.66;102051.50;5011955;28;20025;-62
2023/07/07 09:17:38;;;;;;;4.13;1.92;;;;;;;25.11;63.94;102051.97;5023179;28;20025;-61
2023/07/07 09:20:05;;;;;;;7.55;2.53;;;;;;;25.31;63.23;102054.13;5022826;28;20068;-63
2023/07/07 09:22:42;;;;;;;4.07;2.20;;;;;;;25.45;63.52;102047.63;5021713;28;20480;-62
2023/07/07 09:25:20;;;;;;;3.45;2.05;;;;;;;25.48;60.94;102055.47;5023820;28;20172;-62
2023/07/07 09:27:54;;;;;;;6.05;2.50;;;;;;;25.58;61.72;102052.91;5023416;28;20032;-61
2023/07/07 09:30:22;;;;;;;6.63;2.35;;;;;;;25.64;61.78;102052.44;5026827;28;20034;-61
2023/07/07 09:32:47;;;;;;;7.40;2.03;;;;;;;25.73;62.12;102057.13;5026832;28;20014;-61
2023/07/07 09:35:13;;;;;;;5.03;2.30;;;;;;;25.90;60.86;102051.34;5023707;28;20048;-61
2023/07/07 09:38:11;;;;;;;5.18;2.33;;;;;;;25.99;60.77;102046.06;5024204;28;20037;-59
2023/07/07 09:41:01;;;;;;;2.88;2.13;;;;;;;26.04;58.98;102047.53;4988940;28;20068;-62
2023/07/07 09:43:43;;;;;;;6.07;2.30;;;;;;;26.05;57.28;102049.25;5022149;28;20044;-62
2023/07/07 09:46:17;;;;;;;6.13;2.22;;;;;;;26.12;56.28;102045.03;5020811;28;20029;-62
2023/07/07 09:48:52;;;;;;;4.75;1.77;;;;;;;26.08;54.24;102049.00;5021908;28;20433;-60
2023/07/07 09:51:39;;;;;;;6.05;2.55;;;;;;;26.22;53.50;102048.72;5021037;28;20025;-62
2023/07/07 09:54:08;;;;;;;5.35;2.47;;;;;;;26.15;53.60;102042.09;5006563;28;20455;-64
2023/07/07 09:56:47;;;;;;;8.75;2.30;;;;;;;26.29;54.89;102051.81;5004055;28;20056;-62
2023/07/07 09:59:23;;;;;;;;;;;;;;;26.31;54.06;102048.97;5009167;28;20030;-62
2023/07/07 10:01:50;;;;;;;3.55;2.20;;;;;;;26.45;53.81;102040.56;4998111;28;19964;-62
2023/07/07 10:04:16;;;;;;;6.55;2.35;;;;;;;26.43;53.71;102039.84;5009142;28;20114;-62
2023/07/07 10:06:51;;;;;;;4.40;2.13;;;;;;;26.53;52.27;102045.34;5007866;28;20029;-61
2023/07/07 10:09:16;;;;;;;4.63;2.45;;;;;;;26.58;52.01;102042.25;5010184;28;20441;-63
2023/07/07 10:11:42;;;;;;;6.18;2.00;;;;;;;26.50;52.06;102037.50;5009870;28;20022;-63
2023/07/07 10:14:12;;;;;;;3.58;2.05;;;;;;;26.71;53.02;102037.53;5009409;28;20037;-59
2023/07/07 10:16:59;;;;;;;3.38;2.17;;;;;;;26.94;51.64;102045.50;5007699;28;20045;-62
2023/07/07 10:19:24;;;;;;;4.20;2.30;;;;;;;26.97;52.71;102042.56;5009409;28;20262;-60
2023/07/07 10:21:50;;;;;;;5.70;2.10;;;;;;;26.89;52.88;102036.94;5009092;28;20100;-59
2023/07/07 10:24:15;;;;;;;9.75;2.30;;;;;;;27.06;51.31;102042.81;5011195;28;20065;-66
2023/07/07 10:26:45;;;;;;;4.45;2.22;;;;;;;27.16;50.96;102048.25;5009551;28;20552;-69
2023/07/07 10:29:15;;;;;;;6.03;2.40;;;;;;;27.09;50.06;102045.25;5006773;28;20026;-66
2023/07/07 10:31:42;;;;;;;3.45;2.20;;;;;;;27.06;50.80;102048.22;5009666;28;20064;-63
2023/07/07 10:34:46;;;;;;;4.65;2.05;;;;;;;27.36;50.29;102035.72;5008976;28;20064;-66
2023/07/07 10:37:27;;;;;;;5.78;2.10;;;;;;;27.26;50.00;102035.66;4988067;28;20506;-63
2023/07/07 10:39:54;;;;;;;5.13;2.30;;;;;;;27.64;49.43;102041.38;5004352;28;20486;-68
2023/07/07 10:42:23;;;;;;;3.50;2.10;;;;;;;27.74;50.58;102031.50;5005830;28;20029;-60
2023/07/07 10:44:49;;;;;;;6.13;2.25;;;;;;;27.67;50.26;102029.47;4990966;28;20022;-61
2023/07/07 10:47:19;;;;;;;2.30;2.10;;;;;;;27.91;48.56;102037.25;5007795;28;20030;-59
2023/07/07 10:49:44;;;;;;;5.35;2.47;;;;;;;27.96;48.07;102037.66;5010523;28;20030;-59
2023/07/07 10:52:19;;;;;;;6.25;2.38;;;;;;;27.73;46.13;102037.91;5008979;28;20022;-57
2023/07/07 10:54:54;;;;;;;2.80;2.00;;;;;;;27.81;48.68;102030.94;5010311;28;20494;-58
2023/07/07 10:57:48;;;;;;;6.32;2.47;;;;;;;27.97;48.58;102025.88;5006194;28;20026;-59
2023/07/07 11:00:25;;;;;;;4.22;2.40;;;;;;;28.22;48.42;102028.16;4992117;28;20049;-60
2023/07/07 11:03:09;;;;;;;3.83;2.30;;;;;;;28.26;46.51;102030.47;5010503;28;20037;-59
2023/07/07 11:05:46;;;;;;;3.92;2.22;;;;;;;28.36;47.46;102021.53;5009483;28;20029;-60
2023/07/07 11:08:40;;;;;;;6.47;2.30;;;;;;;28.34;43.94;102027.09;5008583;28;20026;-54
2023/07/07 11:11:28;;;;;;;4.78;2.47;;;;;;;28.42;44.85;102029.09;5007785;28;20041;-59
2023/07/07 11:14:20;;;;;;;5.63;2.53;;;;;;;28.51;44.41;102028.22;5009851;28;20038;-64
2023/07/07 11:16:55;;;;;;;5.80;2.20;;;;;;;28.13;47.40;102024.44;5008324;28;20121;-63
2023/07/07 11:19:51;;;;;;;5.78;2.55;;;;;;;28.66;45.17;102019.66;5009448;28;20038;-65
2023/07/07 11:22:45;;;;;;;6.45;2.35;;;;;;;28.74;45.63;102019.78;5007382;28;20364;-63
2023/07/07 11:25:25;;;;;;;4.70;2.30;;;;;;;29.05;46.22;102017.94;4988058;28;20636;-62
2023/07/07 11:28:17;;;;;;;4.40;2.35;;;;;;;28.77;45.90;102018.63;4987832;28;20041;-64
2023/07/07 11:31:19;;;;;;;3.42;2.25;;;;;;;29.05;43.35;102026.06;4989178;28;20479;-64